Electra, TX (76360)

3:31 PM CDT on July 29, 2015 (GMT -0500)
Electra | | Change Station
CLOSE
Current Station
Personal Weather Station
Location: Electra, TX
Elevation: 1227 ft
Nearby Weather Stations

Elev 1227 ft 34.03 °N, 98.91 °W | Updated 24 seconds ago

Partly Cloudy
Partly Cloudy
99.0 °F
Feels Like 105 °F
N
2.9
Wind Variable Wind from SE
Gusts 7.0 mph

Today
High -- | Low -- °F
--% Chance of Precip.
Yesterday
High -- | Low -- °F
Precip. -- in
6:44 AM 8:38 PM
Waxing Gibbous, 96% visible
Pressure 30.02 in
Visibility 10.0 miles
Clouds Scattered Clouds 7000 ft
Mostly Cloudy 9000 ft
Mostly Cloudy 11000 ft
Heat Index 105 °F
Dew Point 68 °F
Humidity 37%
Rainfall 0.00 in
Snow Depth Not available.
UV 6 out of 12
Pollen 5.40 out of 12
Air Quality Not available.
Flu Activity Not available.
METAR KF05 292015Z AUTO 11008KT 10SM SCT070 BKN090 BKN110 38/14 A3002 RMK AO1 T03760136

More Conditions Fewer Conditions

Pressure 30.02 in
Visibility 10.0 miles
Clouds Scattered Clouds 7000 ft
Mostly Cloudy 9000 ft
Mostly Cloudy 11000 ft
Heat Index 105 °F
Dew Point 68 °F
Humidity 37%
Rainfall 0.00 in
Snow Depth Not available.
UV 6 out of 12
Pollen 5.40 out of 12
Air Quality Not available.
Flu Activity Not available.
METAR KF05 292015Z AUTO 11008KT 10SM SCT070 BKN090 BKN110 38/14 A3002 RMK AO1 T03760136

More Conditions Fewer Conditions

10-Day Weather Forecast

×

Almanac

Astronomy

Jul. 29, 2015 Rise Set
Actual Time
Civil Twilight
Nautical Twilight
Astronomical Twilight
Moon
Length of Visible Light
Length of Day
Tomorrow will be .
, % of the Moon is Illuminated

Today's Extremes

State Highs State Lows

Community

WunderPhotos

Upload Photos

1,842,162 photos uploaded!

WunderBlogs® & News

Nearby

Air Quality

  Air Quality AQ Index Pollutant
Not available.

Snow Depth

Station Depth Elevation

Earthquake Activity

City Distance Mag. Time & Date
Minimum magnitude displayed is 2.5.

Coastal Water Temperatures

Place Temperature

Stations

Nearby Weather Stations

Station Location Temp. Windchill Dew Point Humidity Wind Precip. Elev Updated Type